Terminal Aerodrome Forecast
Issued by NWS Newport/Morehead City, NC

Home | Current Version | Previous Version | Graphics & Text | Print | Product List | Glossary On
Versions: 1 2 3 4 5 6 7 8 9 10 11 12 13 14 15 16 17
000
FTUS42 KMHX 271359 AAC
TAFEWN
TAF AMD
KEWN 271359Z 2714/2812 04010KT P6SM VCTS SCT010 BKN025 OVC050CB
      TEMPO 2714/2715 1SM TSRA BKN015CB
     FM271600 06008KT P6SM VCSH SCT025 BKN040
     FM280600 02006KT P6SM SCT015=

USA.gov is the U.S. government's official web portal to all federal, state and local government web resources and services.